createdAt,value
2017-09-04T00:01:30.352Z,17.90
2017-09-04T00:03:56.318Z,17.90
2017-09-04T00:06:22.443Z,16.57
2017-09-04T00:08:48.653Z,15.83
2017-09-04T00:11:16.951Z,15.10
2017-09-04T00:13:42.952Z,15.03
2017-09-04T00:16:08.975Z,14.37
2017-09-04T00:18:35.204Z,13.27
2017-09-04T00:21:01.329Z,13.33
2017-09-04T00:23:27.352Z,12.97
2017-09-04T00:25:53.397Z,13.90
2017-09-04T00:28:19.392Z,12.90
2017-09-04T00:30:45.413Z,11.20
2017-09-04T00:33:11.408Z,11.40
2017-09-04T00:35:37.381Z,12.00
2017-09-04T00:38:03.339Z,11.50
2017-09-04T00:40:29.303Z,10.90
2017-09-04T00:42:55.269Z,10.00
2017-09-04T00:45:21.239Z,10.07
2017-09-04T00:47:47.342Z,10.57
2017-09-04T00:50:13.285Z,9.80
2017-09-04T00:52:39.334Z,9.73
2017-09-04T00:55:06.179Z,10.37
2017-09-04T00:57:32.221Z,9.80
2017-09-04T00:59:58.298Z,9.20
2017-09-04T01:02:24.421Z,9.13
2017-09-04T01:04:50.451Z,9.17
2017-09-04T01:07:16.402Z,9.00
2017-09-04T01:09:43.316Z,9.00
2017-09-04T01:12:09.369Z,8.50
2017-09-04T01:14:36.092Z,8.60
2017-09-04T01:17:02.129Z,8.80
2017-09-04T01:19:28.136Z,9.30
2017-09-04T01:21:54.409Z,8.03
2017-09-04T01:24:20.432Z,9.00
2017-09-04T01:26:46.410Z,8.47
2017-09-04T01:29:12.328Z,8.00
2017-09-04T01:31:38.555Z,8.07
2017-09-04T01:34:04.538Z,8.47
2017-09-04T01:36:30.651Z,8.40
2017-09-04T01:38:56.616Z,7.70
2017-09-04T01:41:22.600Z,7.47
2017-09-04T01:43:48.588Z,6.67
2017-09-04T01:46:14.576Z,6.43
2017-09-04T01:48:40.612Z,7.80
2017-09-04T01:51:06.576Z,7.13
2017-09-04T01:53:32.612Z,7.60
2017-09-04T01:55:58.612Z,7.10
2017-09-04T01:58:24.555Z,7.70
2017-09-04T02:00:50.575Z,7.73
2017-09-04T02:03:16.555Z,7.27
2017-09-04T02:05:42.583Z,7.13
2017-09-04T02:08:08.638Z,7.93
2017-09-04T02:10:34.714Z,7.50
2017-09-04T02:13:00.687Z,8.80
2017-09-04T02:15:26.775Z,7.73
2017-09-04T02:17:52.842Z,7.67
2017-09-04T02:20:19.836Z,7.53
2017-09-04T02:22:45.884Z,7.30
2017-09-04T02:25:12.795Z,8.17
2017-09-04T02:27:38.966Z,8.00
2017-09-04T02:30:05.261Z,8.60
2017-09-04T02:32:31.200Z,8.23
2017-09-04T02:34:57.146Z,7.70
2017-09-04T02:37:23.090Z,7.97
2017-09-04T02:39:49.063Z,7.90
2017-09-04T02:42:15.057Z,8.43
2017-09-04T02:44:41.020Z,8.50
2017-09-04T02:47:06.980Z,8.03
2017-09-04T02:49:32.972Z,8.00
2017-09-04T02:51:58.987Z,7.50
2017-09-04T02:54:25.017Z,8.10
2017-09-04T02:56:51.008Z,8.23
2017-09-04T02:59:17.032Z,7.70
2017-09-04T03:01:43.048Z,7.43
2017-09-04T03:04:10.019Z,8.63
2017-09-04T03:06:36.056Z,8.07
2017-09-04T03:09:02.043Z,8.20
2017-09-04T03:11:29.005Z,8.30
2017-09-04T03:13:55.073Z,6.83
2017-09-04T03:16:21.139Z,7.63
2017-09-04T03:18:47.210Z,8.70
2017-09-04T03:21:13.208Z,7.90
2017-09-04T03:23:40.192Z,8.37
2017-09-04T03:26:06.207Z,7.70
2017-09-04T03:28:32.187Z,8.60
2017-09-04T03:30:58.276Z,8.30
2017-09-04T03:33:25.158Z,8.20
2017-09-04T03:35:51.115Z,8.00
2017-09-04T03:38:17.103Z,8.10
2017-09-04T03:40:43.111Z,8.90
2017-09-04T03:43:09.148Z,7.67
2017-09-04T03:45:35.159Z,7.60
2017-09-04T03:48:01.103Z,8.03
2017-09-04T03:50:27.067Z,7.00
2017-09-04T03:52:53.131Z,7.97
2017-09-04T03:55:19.155Z,7.13
2017-09-04T03:57:45.176Z,7.33
2017-09-04T04:00:11.186Z,8.50
2017-09-04T04:02:37.189Z,8.40
2017-09-04T04:05:03.153Z,7.70
2017-09-04T04:07:29.166Z,7.00
2017-09-04T04:09:55.113Z,7.50
2017-09-04T04:12:21.116Z,6.83
2017-09-04T04:14:47.131Z,7.33
2017-09-04T04:17:13.178Z,7.53
2017-09-04T04:19:39.198Z,7.20
2017-09-04T04:22:05.433Z,7.60
2017-09-04T04:24:31.444Z,8.07
2017-09-04T04:26:57.563Z,7.73
2017-09-04T04:29:23.533Z,7.63
2017-09-04T04:31:49.583Z,6.90
2017-09-04T04:34:15.631Z,7.00
2017-09-04T04:36:43.092Z,7.70
2017-09-04T04:39:09.787Z,7.77
2017-09-04T04:41:35.748Z,7.90
2017-09-04T04:44:02.356Z,8.43
2017-09-04T04:46:28.889Z,8.37
2017-09-04T04:48:54.893Z,7.73
2017-09-04T04:51:20.991Z,7.83
2017-09-04T04:53:47.932Z,8.10
2017-09-04T04:56:13.928Z,8.10
2017-09-04T04:58:39.978Z,8.90
2017-09-04T05:01:07.870Z,8.90
2017-09-04T05:03:33.911Z,8.13
2017-09-04T05:05:59.922Z,8.53
2017-09-04T05:08:25.925Z,9.10
2017-09-04T05:10:51.966Z,8.73
2017-09-04T05:13:18.482Z,8.33
2017-09-04T05:15:44.628Z,8.90
2017-09-04T05:18:10.629Z,9.20
2017-09-04T05:20:36.654Z,10.50
2017-09-04T05:23:03.693Z,9.57
2017-09-04T05:25:29.725Z,9.37
2017-09-04T05:27:55.865Z,10.10
2017-09-04T05:30:21.937Z,10.17
2017-09-04T05:32:48.745Z,10.67
2017-09-04T05:35:15.551Z,9.70
2017-09-04T05:37:42.368Z,9.93
2017-09-04T05:40:08.424Z,9.30
2017-09-04T05:42:35.394Z,9.33
2017-09-04T05:45:01.538Z,8.93
2017-09-04T05:47:27.571Z,7.83
2017-09-04T05:49:53.551Z,7.53
2017-09-04T05:52:19.551Z,7.83
2017-09-04T05:54:45.540Z,7.83
2017-09-04T05:57:11.567Z,9.73
2017-09-04T05:59:37.633Z,8.80
2017-09-04T06:02:03.642Z,8.67
2017-09-04T06:04:30.519Z,8.87
2017-09-04T06:06:56.463Z,8.57
2017-09-04T06:09:22.715Z,10.70
2017-09-04T06:11:48.792Z,8.60
2017-09-04T06:14:14.755Z,9.03
2017-09-04T06:16:40.756Z,35.90
2017-09-04T06:19:06.752Z,10.90
2017-09-04T06:21:32.776Z,9.73
2017-09-04T06:23:59.691Z,9.73
2017-09-04T06:26:25.743Z,9.20
2017-09-04T06:28:51.747Z,9.30
2017-09-04T06:31:18.126Z,10.07
2017-09-04T06:33:44.096Z,8.73
2017-09-04T06:36:10.332Z,7.60
2017-09-04T06:38:36.370Z,8.93
2017-09-04T06:41:02.367Z,8.60
2017-09-04T06:43:28.903Z,9.17
2017-09-04T06:45:55.114Z,8.67
2017-09-04T06:48:21.084Z,8.20
2017-09-04T06:50:47.047Z,8.30
2017-09-04T06:53:13.047Z,7.97
2017-09-04T06:55:39.123Z,10.20
2017-09-04T06:58:05.989Z,9.67
2017-09-04T07:00:32.115Z,10.10
2017-09-04T07:02:58.142Z,10.77
2017-09-04T07:05:25.592Z,10.50
2017-09-04T07:07:53.286Z,10.57
2017-09-04T07:10:19.495Z,11.40
2017-09-04T07:12:45.968Z,11.47
2017-09-04T07:15:12.257Z,10.70
2017-09-04T07:17:38.380Z,10.53
2017-09-04T07:20:04.614Z,11.87
2017-09-04T07:22:32.664Z,10.23
2017-09-04T07:24:58.703Z,11.30
2017-09-04T07:27:24.728Z,11.13
2017-09-04T07:29:50.792Z,12.10
2017-09-04T07:32:16.824Z,10.80
2017-09-04T07:34:43.047Z,12.57
2017-09-04T07:37:10.047Z,11.73
2017-09-04T07:39:37.125Z,11.03
2017-09-04T07:42:03.259Z,11.83
2017-09-04T07:44:29.391Z,11.77
2017-09-04T07:46:56.232Z,10.87
2017-09-04T07:49:22.238Z,11.63
2017-09-04T07:51:48.211Z,11.57
2017-09-04T07:54:14.133Z,12.03
2017-09-04T07:56:43.324Z,11.17
2017-09-04T07:59:09.399Z,11.27
2017-09-04T08:01:35.330Z,10.77
2017-09-04T08:04:01.372Z,11.00
2017-09-04T08:06:27.655Z,10.80
2017-09-04T08:08:53.662Z,10.80
2017-09-04T08:11:19.627Z,11.10
2017-09-04T08:13:46.158Z,11.07
2017-09-04T08:16:12.199Z,10.57
2017-09-04T08:18:38.201Z,10.27
2017-09-04T08:21:04.529Z,11.40
2017-09-04T08:23:30.899Z,12.57
2017-09-04T08:25:56.856Z,10.63
2017-09-04T08:28:23.016Z,10.50
2017-09-04T08:30:49.455Z,10.27
2017-09-04T08:33:15.487Z,9.80
2017-09-04T08:35:41.525Z,9.90
2017-09-04T08:38:08.372Z,11.87
2017-09-04T08:40:34.778Z,11.70
2017-09-04T08:43:00.775Z,12.47
2017-09-04T08:45:28.195Z,11.67
2017-09-04T08:47:55.435Z,11.97
2017-09-04T08:52:52.221Z,11.10
2017-09-04T08:55:19.460Z,12.70
2017-09-04T08:57:46.627Z,12.27
2017-09-04T09:00:12.617Z,13.20
2017-09-04T09:02:41.200Z,11.97
2017-09-04T09:05:07.269Z,11.87
2017-09-04T09:07:33.341Z,12.50
2017-09-04T09:09:59.349Z,13.03
2017-09-04T09:12:25.362Z,12.73
2017-09-04T09:14:51.339Z,10.90
2017-09-04T09:17:17.292Z,11.00
2017-09-04T09:19:43.288Z,10.83
2017-09-04T09:22:09.345Z,13.03
2017-09-04T09:24:36.106Z,13.80
2017-09-04T09:27:02.096Z,14.73
2017-09-04T09:29:28.948Z,14.97
2017-09-04T09:31:54.924Z,15.37
2017-09-04T09:34:21.928Z,17.50
2017-09-04T09:36:49.277Z,17.00
2017-09-04T09:39:17.187Z,15.13
2017-09-04T09:41:43.514Z,15.40
2017-09-04T09:44:11.010Z,15.47
2017-09-04T09:46:39.285Z,15.80
2017-09-04T09:49:05.323Z,13.47
2017-09-04T09:51:32.276Z,12.50
2017-09-04T09:53:59.114Z,11.20
2017-09-04T09:56:25.551Z,11.37
2017-09-04T09:58:51.605Z,11.40
2017-09-04T10:01:17.591Z,11.40
2017-09-04T10:03:45.355Z,11.67
2017-09-04T10:06:12.819Z,12.37
2017-09-04T10:08:38.839Z,12.97
2017-09-04T10:11:05.364Z,12.80
2017-09-04T10:13:33.028Z,12.37
2017-09-04T10:16:01.453Z,12.10
2017-09-04T10:18:27.443Z,10.83
2017-09-04T10:20:53.459Z,12.07
2017-09-04T10:23:19.536Z,13.30
2017-09-04T10:25:46.818Z,11.70
2017-09-04T10:28:12.891Z,11.00
2017-09-04T10:30:39.475Z,9.33
2017-09-04T10:33:06.014Z,10.30
2017-09-04T10:35:32.713Z,9.20
2017-09-04T10:37:59.070Z,10.90
2017-09-04T10:40:25.146Z,7.93
2017-09-04T10:42:51.228Z,9.30
2017-09-04T10:45:17.243Z,10.20
2017-09-04T10:47:43.291Z,7.90
2017-09-04T10:50:09.246Z,8.73
2017-09-04T10:52:35.691Z,8.30
2017-09-04T10:55:01.712Z,8.57
2017-09-04T10:57:27.971Z,7.87
2017-09-04T10:59:53.959Z,7.00
2017-09-04T11:02:20.001Z,7.43
2017-09-04T11:04:46.220Z,6.80
2017-09-04T11:07:18.596Z,7.07
2017-09-04T11:09:48.406Z,6.30
2017-09-04T11:12:14.960Z,6.57
2017-09-04T11:14:42.456Z,6.00
2017-09-04T11:17:08.507Z,6.67
2017-09-04T11:19:34.464Z,5.53
2017-09-04T11:22:00.569Z,4.87
2017-09-04T11:24:26.532Z,5.83
2017-09-04T11:26:52.563Z,5.00
2017-09-04T11:29:18.526Z,5.20
2017-09-04T11:31:44.515Z,5.47
2017-09-04T11:34:10.467Z,5.10
2017-09-04T11:36:36.506Z,4.90
2017-09-04T11:39:02.709Z,5.70
2017-09-04T11:41:28.942Z,5.70
2017-09-04T11:43:55.592Z,5.63
2017-09-04T11:46:22.823Z,6.00
2017-09-04T11:48:48.915Z,5.30
2017-09-04T11:51:14.989Z,5.57
2017-09-04T11:53:41.305Z,5.30
2017-09-04T11:56:08.295Z,5.30
2017-09-04T11:58:35.195Z,6.37
2017-09-04T12:01:01.182Z,5.37
2017-09-04T12:03:27.213Z,4.90
2017-09-04T12:05:53.216Z,5.10
2017-09-04T12:08:19.223Z,5.50
2017-09-04T12:10:45.227Z,5.77
2017-09-04T12:13:11.276Z,4.63
2017-09-04T12:15:37.286Z,5.03
2017-09-04T12:18:03.329Z,4.33
2017-09-04T12:20:29.314Z,4.23
2017-09-04T12:22:55.450Z,4.90
2017-09-04T12:25:21.520Z,4.80
2017-09-04T12:27:47.583Z,4.87
2017-09-04T12:30:14.995Z,4.77
2017-09-04T12:32:40.955Z,4.90
2017-09-04T12:35:08.065Z,4.93
2017-09-04T12:37:35.102Z,4.83
2017-09-04T12:40:01.213Z,5.87
2017-09-04T12:42:27.339Z,5.33
2017-09-04T12:44:53.360Z,4.93
2017-09-04T12:47:19.421Z,5.00
2017-09-04T12:49:45.419Z,5.00
2017-09-04T12:52:11.516Z,5.43
2017-09-04T12:54:37.548Z,5.17
2017-09-04T12:57:03.577Z,4.93
2017-09-04T12:59:29.705Z,5.20
2017-09-04T13:01:55.723Z,5.73
2017-09-04T13:04:21.891Z,4.83
2017-09-04T13:06:49.096Z,5.00
2017-09-04T13:09:15.204Z,4.73
2017-09-04T13:11:47.184Z,5.20
2017-09-04T13:14:20.730Z,4.80
2017-09-04T13:16:52.749Z,5.13
2017-09-04T13:19:24.657Z,5.30
2017-09-04T13:21:56.855Z,5.20
2017-09-04T13:24:28.989Z,5.03
2017-09-04T13:27:01.480Z,4.40
2017-09-04T13:29:33.583Z,4.40
2017-09-04T13:32:06.631Z,5.43
2017-09-04T13:34:39.611Z,4.70
2017-09-04T13:37:07.552Z,3.83
2017-09-04T13:39:41.333Z,5.33
2017-09-04T13:42:10.944Z,4.73
2017-09-04T13:44:43.151Z,4.90
2017-09-04T13:47:24.344Z,5.00
2017-09-04T13:49:56.294Z,4.80
2017-09-04T13:52:25.249Z,4.67
2017-09-04T13:55:01.641Z,4.43
2017-09-04T13:57:33.858Z,4.60
2017-09-04T14:00:04.949Z,5.20
2017-09-04T14:02:32.797Z,5.67
2017-09-04T14:05:02.074Z,4.40
2017-09-04T14:10:13.771Z,5.27
2017-09-04T14:12:45.859Z,4.50
2017-09-04T14:15:19.438Z,4.40
2017-09-04T14:17:47.471Z,4.03
2017-09-04T14:20:13.474Z,4.27
2017-09-04T14:25:12.657Z,4.10
2017-09-04T14:27:38.712Z,4.43
2017-09-04T14:30:05.639Z,4.20
2017-09-04T14:32:33.573Z,4.73
2017-09-04T14:35:01.328Z,4.30
2017-09-04T14:37:28.487Z,4.20
2017-09-04T14:39:55.280Z,4.07
2017-09-04T14:42:21.356Z,4.33
2017-09-04T14:44:48.285Z,4.17
2017-09-04T14:47:17.605Z,5.10
2017-09-04T14:49:46.287Z,3.97
2017-09-04T14:52:13.668Z,4.33
2017-09-04T14:54:39.687Z,5.07
2017-09-04T14:57:07.419Z,4.20
2017-09-04T14:59:35.716Z,4.40
2017-09-04T15:02:01.895Z,4.07
2017-09-04T15:04:28.663Z,4.20
2017-09-04T15:06:56.693Z,4.27
2017-09-04T15:09:23.418Z,4.20
2017-09-04T15:11:54.078Z,3.57
2017-09-04T15:14:23.818Z,4.20
2017-09-04T15:16:52.011Z,3.77
2017-09-04T15:22:20.621Z,4.03
2017-09-04T15:24:46.744Z,4.53
2017-09-04T15:27:12.824Z,4.23
2017-09-04T15:29:42.363Z,4.27
2017-09-04T15:32:10.216Z,4.47
2017-09-04T15:34:37.372Z,4.23
2017-09-04T15:37:03.405Z,4.63
2017-09-04T15:39:29.472Z,4.97
2017-09-04T15:41:56.448Z,4.67
2017-09-04T15:44:26.184Z,4.30
2017-09-04T15:46:55.283Z,4.30
2017-09-04T15:49:21.740Z,4.33
2017-09-04T15:51:47.884Z,5.67
2017-09-04T15:54:14.008Z,4.43
2017-09-04T15:56:43.401Z,4.80
2017-09-04T15:59:10.410Z,4.93
2017-09-04T16:01:37.678Z,4.27
2017-09-04T16:04:04.045Z,4.70
2017-09-04T16:06:32.911Z,4.40
2017-09-04T16:09:00.414Z,4.90
2017-09-04T16:11:26.736Z,4.90
2017-09-04T16:14:07.709Z,5.00
2017-09-04T16:16:49.758Z,4.90
2017-09-04T16:19:17.598Z,4.77
2017-09-04T16:21:47.539Z,4.70
2017-09-04T16:27:02.559Z,5.10
2017-09-04T16:29:30.419Z,5.60
2017-09-04T16:31:57.496Z,5.90
2017-09-04T16:37:08.427Z,6.50
2017-09-04T16:39:45.155Z,6.07
2017-09-04T16:42:18.714Z,6.70
2017-09-04T16:47:22.767Z,6.20
2017-09-04T16:49:55.771Z,8.67
2017-09-04T16:52:28.330Z,6.33
2017-09-04T16:55:00.813Z,6.50
2017-09-04T16:57:30.165Z,6.70
2017-09-04T16:59:56.312Z,6.80
2017-09-04T17:02:26.280Z,6.70
2017-09-04T17:04:53.063Z,6.73
2017-09-04T17:07:19.189Z,6.73
2017-09-04T17:09:46.273Z,6.37
2017-09-04T17:12:14.856Z,9.30
2017-09-04T17:14:46.834Z,7.13
2017-09-04T17:20:06.832Z,7.10
2017-09-04T17:22:35.864Z,6.67
2017-09-04T17:25:03.172Z,6.50
2017-09-04T17:27:34.801Z,6.33
2017-09-04T17:30:01.804Z,6.33
2017-09-04T17:35:02.528Z,6.57
2017-09-04T17:37:30.878Z,6.50
2017-09-04T17:40:01.537Z,7.03
2017-09-04T17:42:30.100Z,7.20
2017-09-04T17:44:57.329Z,6.70
2017-09-04T17:47:24.014Z,7.73
2017-09-04T17:49:54.493Z,7.73
2017-09-04T17:52:25.373Z,6.80
2017-09-04T17:54:51.458Z,12.10
2017-09-04T18:00:05.016Z,7.77
2017-09-04T18:02:33.482Z,6.63
2017-09-04T18:04:59.544Z,7.40
2017-09-04T18:07:29.803Z,7.57
2017-09-04T18:12:36.222Z,7.00
2017-09-04T18:15:04.008Z,8.00
2017-09-04T18:17:30.413Z,7.23
2017-09-04T18:25:07.047Z,7.57
2017-09-04T18:30:17.146Z,7.43
2017-09-04T18:35:51.148Z,6.70
2017-09-04T18:38:28.985Z,6.93
2017-09-04T18:46:09.130Z,6.73
2017-09-04T18:51:46.037Z,6.90
2017-09-04T18:54:20.123Z,6.50
2017-09-04T19:02:28.203Z,5.80
2017-09-04T19:05:06.949Z,6.20
2017-09-04T19:07:38.107Z,6.20
2017-09-04T19:10:16.229Z,6.23
2017-09-04T19:15:25.226Z,5.70
2017-09-04T19:25:49.483Z,5.60
2017-09-04T19:28:18.147Z,6.47
2017-09-04T19:30:49.249Z,5.90
2017-09-04T19:36:06.332Z,5.57
2017-09-04T19:38:40.052Z,6.27
2017-09-04T19:43:57.942Z,6.97
2017-09-04T19:52:03.418Z,6.57
2017-09-04T19:54:29.533Z,6.93
2017-09-04T19:56:56.946Z,7.30
2017-09-04T20:04:54.445Z,6.53
2017-09-04T20:15:16.615Z,6.20
2017-09-04T20:17:45.539Z,6.57
2017-09-04T20:20:12.582Z,7.30
2017-09-04T20:22:59.661Z,7.90
2017-09-04T20:25:28.774Z,8.20
2017-09-04T20:27:59.912Z,9.20
2017-09-04T20:30:30.118Z,8.00
2017-09-04T20:32:56.352Z,6.77
2017-09-04T20:35:28.309Z,8.00
2017-09-04T20:43:22.845Z,8.03
2017-09-04T20:45:51.461Z,7.03
2017-09-04T20:48:18.355Z,6.70
2017-09-04T21:01:08.509Z,6.13
2017-09-04T21:03:34.542Z,6.27
2017-09-04T21:06:00.661Z,6.93
2017-09-04T21:08:26.703Z,6.50
2017-09-04T21:10:52.986Z,6.40
2017-09-04T21:13:18.984Z,6.10
2017-09-04T21:15:45.012Z,6.47
2017-09-04T21:18:11.932Z,6.00
2017-09-04T21:20:37.922Z,5.40
2017-09-04T21:23:03.949Z,6.10
2017-09-04T21:25:29.965Z,5.33
2017-09-04T21:27:57.331Z,5.67
2017-09-04T21:30:23.316Z,5.60
2017-09-04T21:32:49.403Z,5.93
2017-09-04T21:35:16.240Z,5.30
2017-09-04T21:37:43.496Z,5.70
2017-09-04T21:40:10.486Z,6.00
2017-09-04T21:42:40.989Z,5.03
2017-09-04T21:45:09.283Z,6.00
2017-09-04T21:47:37.451Z,6.10
2017-09-04T21:50:06.887Z,5.67
2017-09-04T21:52:42.007Z,6.07
2017-09-04T21:55:10.940Z,6.67
2017-09-04T21:57:46.927Z,6.90
2017-09-04T22:00:22.807Z,6.83
2017-09-04T22:02:54.752Z,6.77
2017-09-04T22:05:21.988Z,6.73
2017-09-04T22:07:49.382Z,7.07
2017-09-04T22:10:18.212Z,6.23
2017-09-04T22:12:47.857Z,7.17
2017-09-04T22:15:15.762Z,7.20
2017-09-04T22:17:51.315Z,7.97
2017-09-04T22:20:19.738Z,8.17
2017-09-04T22:22:48.420Z,7.67
2017-09-04T22:25:17.920Z,8.17
2017-09-04T22:27:46.361Z,7.40
2017-09-04T22:30:13.042Z,8.43
2017-09-04T22:32:46.997Z,8.63
2017-09-04T22:35:17.090Z,8.30
2017-09-04T22:37:49.687Z,8.80
2017-09-04T22:40:20.489Z,8.40
2017-09-04T22:42:49.125Z,8.00
2017-09-04T22:45:18.160Z,8.40
2017-09-04T22:47:44.862Z,8.70
2017-09-04T22:50:15.336Z,8.90
2017-09-04T22:52:43.869Z,7.97
2017-09-04T22:55:11.989Z,8.23
2017-09-04T22:57:40.427Z,8.00
2017-09-04T23:00:08.603Z,7.80
2017-09-04T23:02:35.674Z,8.90
2017-09-04T23:05:02.525Z,9.20
2017-09-04T23:07:34.927Z,8.10
2017-09-04T23:10:04.175Z,8.80
2017-09-04T23:12:31.757Z,9.20
2017-09-04T23:14:59.560Z,8.20
2017-09-04T23:17:27.131Z,8.60
2017-09-04T23:19:53.194Z,8.83
2017-09-04T23:22:20.215Z,8.37
2017-09-04T23:24:47.687Z,8.90
2017-09-04T23:27:13.797Z,9.40
2017-09-04T23:29:41.182Z,9.50
2017-09-04T23:32:07.928Z,10.00
2017-09-04T23:34:34.929Z,9.53
2017-09-04T23:37:02.821Z,10.10
2017-09-04T23:39:31.601Z,10.20
2017-09-04T23:41:57.740Z,9.60
2017-09-04T23:44:23.754Z,9.30
2017-09-04T23:46:49.796Z,9.87
2017-09-04T23:49:17.642Z,9.70
2017-09-04T23:51:44.310Z,9.77
2017-09-04T23:54:11.299Z,9.73
2017-09-04T23:56:38.979Z,10.07
2017-09-04T23:59:06.368Z,11.00
